createdAt,value
2023-03-21T00:01:54.468Z,56.47
2023-03-21T00:04:24.606Z,57.75
2023-03-21T00:06:53.422Z,56.65
2023-03-21T00:09:21.695Z,57.65
2023-03-21T00:11:49.845Z,55.10
2023-03-21T00:14:21.024Z,57.55
2023-03-21T00:16:50.798Z,57.08
2023-03-21T00:19:20.976Z,56.38
2023-03-21T00:22:08.833Z,55.80
2023-03-21T00:24:37.803Z,58.47
2023-03-21T00:29:56.874Z,56.08
2023-03-21T00:32:25.149Z,53.20
2023-03-21T00:35:21.487Z,55.78
2023-03-21T00:37:42.090Z,53.67
2023-03-21T00:40:23.016Z,54.42
2023-03-21T00:42:53.742Z,55.13
2023-03-21T00:45:22.262Z,54.60
2023-03-21T00:47:50.603Z,55.75
2023-03-21T00:50:18.931Z,56.03
2023-03-21T00:52:47.197Z,55.33
2023-03-21T00:55:17.083Z,54.40
2023-03-21T00:57:47.576Z,57.40
2023-03-21T01:00:20.568Z,55.33
2023-03-21T01:03:08.534Z,54.58
2023-03-21T01:08:53.516Z,56.10
2023-03-21T01:11:28.181Z,53.42
2023-03-21T01:14:07.196Z,57.47
2023-03-21T01:16:39.497Z,59.92
2023-03-21T01:19:18.219Z,58.92
2023-03-21T01:21:52.554Z,55.28
2023-03-21T01:24:20.746Z,58.83
2023-03-21T01:26:48.838Z,58.45
2023-03-21T01:29:19.863Z,55.67
2023-03-21T01:31:48.182Z,56.90
2023-03-21T01:34:16.587Z,53.97
2023-03-21T01:36:45.185Z,55.20
2023-03-21T01:39:18.333Z,51.08
2023-03-21T01:41:49.305Z,52.17
2023-03-21T01:44:23.404Z,50.60
2023-03-21T01:49:52.697Z,51.85
2023-03-21T01:52:38.711Z,51.95
2023-03-21T01:55:14.026Z,57.85
2023-03-21T01:58:06.280Z,58.70
2023-03-21T02:00:47.632Z,58.40
2023-03-21T02:03:38.529Z,60.55
2023-03-21T02:07:00.851Z,60.30
2023-03-21T02:09:46.227Z,58.30
2023-03-21T02:12:18.830Z,56.90
2023-03-21T02:14:52.401Z,56.20
2023-03-21T02:17:52.543Z,51.13
2023-03-21T02:20:59.066Z,52.58
2023-03-21T02:24:12.620Z,52.88
2023-03-21T02:27:04.351Z,49.67
2023-03-21T02:29:38.972Z,54.90
2023-03-21T02:32:38.018Z,60.75
2023-03-21T02:35:27.202Z,62.35
2023-03-21T02:38:01.919Z,60.13
2023-03-21T02:41:00.409Z,61.55
2023-03-21T02:43:54.186Z,61.55
2023-03-21T02:46:42.917Z,62.67
2023-03-21T02:49:31.456Z,64.03
2023-03-21T02:52:12.162Z,61.65
2023-03-21T02:54:48.882Z,64.85
2023-03-21T02:57:25.300Z,65.93
2023-03-21T03:00:10.578Z,65.95
2023-03-21T03:02:42.635Z,65.70
2023-03-21T03:05:21.737Z,62.33
2023-03-21T03:08:05.647Z,62.00
2023-03-21T03:10:59.850Z,60.65
2023-03-21T03:14:25.181Z,57.15
2023-03-21T03:17:17.496Z,55.50
2023-03-21T03:20:16.537Z,55.58
2023-03-21T03:22:57.522Z,49.75
2023-03-21T03:25:43.016Z,51.05
2023-03-21T03:28:19.619Z,49.88
2023-03-21T03:31:05.657Z,49.40
2023-03-21T03:33:44.296Z,50.60
2023-03-21T03:36:30.361Z,55.75
2023-03-21T03:39:04.770Z,54.05
2023-03-21T03:44:42.369Z,60.38
2023-03-21T03:47:56.676Z,57.63
2023-03-21T03:50:46.450Z,55.60
2023-03-21T03:53:28.879Z,59.70
2023-03-21T03:56:02.312Z,60.50
2023-03-21T03:58:45.714Z,60.13
2023-03-21T04:01:22.016Z,62.97
2023-03-21T04:03:58.395Z,61.95
2023-03-21T04:06:32.691Z,58.97
2023-03-21T04:09:03.462Z,57.20
2023-03-21T04:11:34.537Z,55.50
2023-03-21T04:14:02.791Z,53.20
2023-03-21T04:16:35.134Z,50.53
2023-03-21T04:21:36.803Z,49.45
2023-03-21T04:24:07.470Z,47.88
2023-03-21T04:26:39.556Z,47.35
2023-03-21T04:29:31.862Z,42.15
2023-03-21T04:32:28.974Z,45.08
2023-03-21T04:35:11.348Z,43.80
2023-03-21T04:37:39.876Z,43.42
2023-03-21T04:40:17.822Z,45.25
2023-03-21T04:42:47.686Z,51.75
2023-03-21T04:45:17.078Z,51.95
2023-03-21T04:47:47.115Z,51.03
2023-03-21T04:50:16.755Z,52.33
2023-03-21T04:52:45.012Z,50.42
2023-03-21T04:55:17.447Z,49.25
2023-03-21T04:57:47.598Z,52.53
2023-03-21T05:00:16.780Z,55.92
2023-03-21T05:02:45.206Z,55.42
2023-03-21T05:05:13.713Z,56.80
2023-03-21T05:07:42.310Z,57.58
2023-03-21T05:10:12.332Z,59.35
2023-03-21T05:12:43.352Z,58.67
2023-03-21T05:15:11.752Z,57.00
2023-03-21T05:17:42.722Z,52.13
2023-03-21T05:20:11.972Z,52.67
2023-03-21T05:22:40.908Z,47.40
2023-03-21T05:25:13.474Z,46.10
2023-03-21T05:28:10.479Z,43.35
2023-03-21T05:30:39.794Z,39.00
2023-03-21T05:33:08.718Z,37.55
2023-03-21T05:35:37.304Z,37.15
2023-03-21T05:38:08.349Z,36.72
2023-03-21T05:40:49.507Z,35.33
2023-03-21T05:43:18.782Z,36.92
2023-03-21T05:45:48.652Z,35.63
2023-03-21T05:48:18.826Z,37.22
2023-03-21T05:51:09.340Z,43.13
2023-03-21T05:53:37.557Z,45.95
2023-03-21T05:56:06.402Z,47.42
2023-03-21T05:58:50.405Z,46.75
2023-03-21T06:01:19.455Z,46.50
2023-03-21T06:03:55.941Z,46.08
2023-03-21T06:06:25.933Z,49.03
2023-03-21T06:09:00.303Z,48.10
2023-03-21T06:11:36.097Z,49.53
2023-03-21T06:14:39.327Z,49.97
2023-03-21T06:17:30.088Z,49.55
2023-03-21T06:20:05.131Z,52.65
2023-03-21T06:22:38.327Z,52.22
2023-03-21T06:25:08.091Z,51.22
2023-03-21T06:27:36.819Z,51.63
2023-03-21T06:30:09.989Z,52.67
2023-03-21T06:32:46.960Z,53.38
2023-03-21T06:35:19.042Z,51.92
2023-03-21T06:37:49.364Z,50.28
2023-03-21T06:40:18.544Z,51.08
2023-03-21T06:42:47.146Z,51.75
2023-03-21T06:45:15.590Z,54.72
2023-03-21T06:47:45.448Z,60.30
2023-03-21T06:50:27.629Z,57.67
2023-03-21T06:52:57.664Z,55.75
2023-03-21T06:55:31.628Z,56.90
2023-03-21T06:58:01.873Z,51.35
2023-03-21T07:00:30.264Z,50.28
2023-03-21T07:03:01.830Z,45.92
2023-03-21T07:05:33.060Z,50.60
2023-03-21T07:08:01.407Z,51.13
2023-03-21T07:10:38.132Z,43.72
2023-03-21T07:13:09.816Z,40.83
2023-03-21T07:15:58.783Z,39.42
2023-03-21T07:18:27.662Z,37.88
2023-03-21T07:20:55.934Z,37.22
2023-03-21T07:23:27.581Z,36.50
2023-03-21T07:25:56.713Z,36.85
2023-03-21T07:28:25.638Z,38.15
2023-03-21T07:30:59.929Z,37.83
2023-03-21T07:33:28.395Z,37.72
2023-03-21T07:36:02.082Z,35.95
2023-03-21T07:38:31.975Z,37.90
2023-03-21T07:41:00.882Z,38.75
2023-03-21T07:43:32.487Z,37.60
2023-03-21T07:46:01.821Z,38.05
2023-03-21T07:48:30.552Z,38.90
2023-03-21T07:50:58.983Z,38.20
2023-03-21T07:53:27.613Z,37.05
2023-03-21T07:55:56.728Z,38.38
2023-03-21T07:58:28.597Z,39.97
2023-03-21T08:00:58.660Z,40.00
2023-03-21T08:03:29.275Z,38.75
2023-03-21T08:05:58.860Z,41.20
2023-03-21T08:08:27.465Z,41.08
2023-03-21T08:10:55.766Z,40.05
2023-03-21T08:13:24.727Z,41.05
2023-03-21T08:15:53.364Z,43.20
2023-03-21T08:18:21.547Z,44.40
2023-03-21T08:20:57.571Z,45.72
2023-03-21T08:23:26.479Z,41.85
2023-03-21T08:25:55.439Z,43.17
2023-03-21T08:28:24.806Z,42.05
2023-03-21T08:30:52.954Z,44.15
2023-03-21T08:33:23.991Z,42.78
2023-03-21T08:35:52.262Z,43.90
2023-03-21T08:38:20.753Z,43.28
2023-03-21T08:40:52.548Z,44.50
2023-03-21T08:43:20.717Z,44.55
2023-03-21T08:45:49.402Z,42.63
2023-03-21T08:48:17.608Z,44.03
2023-03-21T08:50:45.859Z,44.58
2023-03-21T08:53:14.047Z,43.97
2023-03-21T08:55:43.231Z,42.65
2023-03-21T08:58:11.409Z,43.38
2023-03-21T09:00:39.595Z,43.92
2023-03-21T09:03:08.657Z,43.63
2023-03-21T09:05:38.456Z,43.63
2023-03-21T09:08:06.767Z,44.22
2023-03-21T09:10:34.921Z,43.15
2023-03-21T09:13:03.069Z,43.95
2023-03-21T09:15:31.904Z,43.42
2023-03-21T09:18:13.326Z,43.72
2023-03-21T09:20:43.201Z,45.63
2023-03-21T09:23:12.321Z,44.80
2023-03-21T09:25:41.405Z,43.40
2023-03-21T09:28:09.732Z,45.28
2023-03-21T09:30:38.232Z,46.58
2023-03-21T09:33:09.725Z,47.30
2023-03-21T09:35:38.256Z,47.03
2023-03-21T09:38:06.989Z,48.22
2023-03-21T09:41:00.991Z,45.55
2023-03-21T09:43:49.590Z,46.28
2023-03-21T09:46:36.734Z,49.97
2023-03-21T09:49:09.968Z,50.53
2023-03-21T09:51:43.036Z,50.00
2023-03-21T09:54:22.685Z,49.88
2023-03-21T09:56:54.675Z,51.13
2023-03-21T09:59:29.881Z,51.03
2023-03-21T10:02:00.261Z,48.35
2023-03-21T10:04:32.628Z,51.85
2023-03-21T10:07:02.647Z,53.47
2023-03-21T10:09:32.601Z,51.00
2023-03-21T10:12:08.310Z,52.25
2023-03-21T10:14:44.146Z,49.50
2023-03-21T10:17:18.101Z,53.55
2023-03-21T10:19:50.172Z,52.22
2023-03-21T10:22:18.304Z,51.22
2023-03-21T10:24:46.469Z,49.20
2023-03-21T10:27:14.941Z,51.28
2023-03-21T10:29:45.854Z,46.70
2023-03-21T10:32:18.241Z,50.53
2023-03-21T10:37:26.032Z,50.05
2023-03-21T10:39:56.066Z,49.45
2023-03-21T10:42:32.841Z,49.78
2023-03-21T10:45:01.383Z,48.65
2023-03-21T10:47:34.005Z,49.40
2023-03-21T10:50:16.165Z,50.92
2023-03-21T10:52:51.666Z,44.78
2023-03-21T10:55:34.546Z,44.38
2023-03-21T10:58:27.393Z,43.83
2023-03-21T11:00:59.178Z,37.53
2023-03-21T11:03:57.126Z,34.30
2023-03-21T11:06:51.672Z,35.13
2023-03-21T11:09:24.907Z,31.95
2023-03-21T11:11:54.875Z,31.05
2023-03-21T11:14:44.303Z,28.67
2023-03-21T11:17:21.739Z,30.13
2023-03-21T11:19:55.771Z,29.63
2023-03-21T11:22:30.950Z,29.02
2023-03-21T11:25:06.303Z,27.17
2023-03-21T11:27:34.926Z,26.90
2023-03-21T11:30:05.385Z,26.05
2023-03-21T11:32:36.175Z,25.00
2023-03-21T11:35:20.802Z,23.40
2023-03-21T11:37:57.096Z,28.48
2023-03-21T11:40:29.564Z,26.80
2023-03-21T11:43:02.477Z,25.80
2023-03-21T11:45:33.656Z,19.55
2023-03-21T11:48:12.717Z,21.23
2023-03-21T11:50:45.014Z,22.20
2023-03-21T11:53:32.103Z,19.98
2023-03-21T11:56:18.997Z,20.35
2023-03-21T11:58:49.869Z,19.65
2023-03-21T12:01:29.518Z,22.38
2023-03-21T12:04:29.667Z,19.48
2023-03-21T12:07:11.898Z,18.40
2023-03-21T12:10:10.796Z,17.83
2023-03-21T12:12:47.821Z,17.80
2023-03-21T12:15:25.277Z,15.30
2023-03-21T12:18:10.258Z,17.45
2023-03-21T12:20:41.177Z,16.98
2023-03-21T12:23:12.419Z,16.40
2023-03-21T12:26:02.268Z,19.52
2023-03-21T12:28:39.132Z,17.55
2023-03-21T12:31:29.870Z,19.35
2023-03-21T12:34:38.189Z,16.73
2023-03-21T12:37:29.272Z,17.15
2023-03-21T12:40:09.948Z,20.33
2023-03-21T12:42:52.614Z,22.30
2023-03-21T12:45:47.740Z,24.35
2023-03-21T12:48:41.603Z,27.42
2023-03-21T12:51:14.421Z,26.42
2023-03-21T12:53:45.458Z,31.50
2023-03-21T12:56:24.071Z,32.90
2023-03-21T12:59:04.858Z,32.58
2023-03-21T13:01:36.828Z,31.63
2023-03-21T13:04:23.858Z,34.33
2023-03-21T13:06:55.520Z,31.83
2023-03-21T13:09:37.599Z,37.65
2023-03-21T13:12:41.544Z,34.30
2023-03-21T13:16:02.224Z,36.92
2023-03-21T13:19:04.506Z,35.85
2023-03-21T13:21:56.588Z,35.88
2023-03-21T13:24:39.809Z,33.92
2023-03-21T13:27:33.830Z,32.80
2023-03-21T13:30:18.618Z,32.60
2023-03-21T13:32:52.523Z,30.38
2023-03-21T13:35:33.924Z,31.10
2023-03-21T13:38:20.496Z,29.70
2023-03-21T13:41:08.641Z,29.05
2023-03-21T13:43:42.867Z,30.88
2023-03-21T13:46:50.522Z,33.28
2023-03-21T13:49:35.836Z,34.38
2023-03-21T13:54:55.043Z,29.83
2023-03-21T13:57:42.063Z,29.13
2023-03-21T14:00:31.294Z,31.10
2023-03-21T14:03:17.919Z,29.55
2023-03-21T14:05:50.836Z,31.40
2023-03-21T14:08:31.284Z,27.77
2023-03-21T14:11:11.883Z,31.33
2023-03-21T14:13:50.912Z,31.27
2023-03-21T14:16:22.207Z,30.83
2023-03-21T14:18:57.246Z,35.33
2023-03-21T14:21:34.651Z,31.17
2023-03-21T14:24:22.862Z,31.00
2023-03-21T14:26:55.241Z,30.33
2023-03-21T14:29:31.885Z,29.55
2023-03-21T14:32:00.940Z,32.13
2023-03-21T14:34:32.194Z,31.48
2023-03-21T14:37:00.690Z,30.67
2023-03-21T14:39:31.784Z,30.98
2023-03-21T14:42:08.341Z,30.10
2023-03-21T14:44:56.179Z,31.17
2023-03-21T14:47:32.121Z,29.80
2023-03-21T14:50:03.630Z,31.48
2023-03-21T14:52:34.332Z,30.08
2023-03-21T14:55:13.349Z,31.52
2023-03-21T14:57:41.859Z,32.42
2023-03-21T15:00:32.649Z,30.77
2023-03-21T15:03:03.040Z,32.00
2023-03-21T15:05:37.820Z,31.45
2023-03-21T15:08:18.443Z,31.00
2023-03-21T15:11:07.318Z,29.58
2023-03-21T15:13:54.864Z,26.88
2023-03-21T15:16:23.748Z,28.30
2023-03-21T15:18:52.733Z,27.77
2023-03-21T15:21:27.843Z,27.67
2023-03-21T15:24:02.869Z,29.88
2023-03-21T15:26:35.410Z,27.77
2023-03-21T15:29:05.603Z,27.13
2023-03-21T15:31:42.156Z,28.73
2023-03-21T15:34:28.843Z,29.75
2023-03-21T15:37:08.824Z,28.33
2023-03-21T15:39:36.958Z,28.15
2023-03-21T15:42:22.829Z,28.10
2023-03-21T15:45:22.969Z,28.67
2023-03-21T15:47:54.818Z,26.80
2023-03-21T15:50:34.748Z,27.90
2023-03-21T15:53:06.662Z,27.50
2023-03-21T15:55:54.147Z,27.98
2023-03-21T15:58:34.788Z,27.85
2023-03-21T16:01:07.232Z,26.70
2023-03-21T16:03:42.691Z,27.92
2023-03-21T16:06:18.206Z,28.80
2023-03-21T16:08:49.032Z,28.42
2023-03-21T16:11:38.296Z,28.02
2023-03-21T16:14:06.981Z,28.63
2023-03-21T16:16:36.432Z,28.63
2023-03-21T16:19:04.684Z,28.73
2023-03-21T16:21:34.641Z,30.00
2023-03-21T16:24:03.195Z,29.63
2023-03-21T16:26:33.746Z,30.13
2023-03-21T16:29:02.784Z,29.63
2023-03-21T16:31:33.567Z,29.15
2023-03-21T16:34:01.832Z,30.05
2023-03-21T16:36:33.185Z,29.52
2023-03-21T16:39:01.378Z,29.98
2023-03-21T16:41:29.485Z,28.92
2023-03-21T16:43:58.060Z,27.95
2023-03-21T16:46:27.494Z,29.85
2023-03-21T16:48:57.974Z,28.38
2023-03-21T16:51:35.070Z,29.08
2023-03-21T16:54:03.747Z,29.08
2023-03-21T16:56:41.995Z,27.90
2023-03-21T16:59:13.728Z,30.50
2023-03-21T17:01:46.114Z,28.83
2023-03-21T17:04:15.749Z,27.83
2023-03-21T17:06:47.467Z,24.45
2023-03-21T17:09:17.099Z,26.80
2023-03-21T17:11:45.455Z,25.85
2023-03-21T17:14:16.896Z,26.63
2023-03-21T17:16:46.144Z,25.70
2023-03-21T17:19:17.280Z,25.77
2023-03-21T17:21:45.859Z,27.15
2023-03-21T17:24:14.424Z,26.23
2023-03-21T17:26:42.492Z,25.77
2023-03-21T17:29:13.803Z,23.38
2023-03-21T17:31:42.640Z,25.45
2023-03-21T17:34:11.173Z,27.48
2023-03-21T17:36:42.159Z,26.10
2023-03-21T17:39:18.954Z,28.95
2023-03-21T17:41:47.181Z,27.90
2023-03-21T17:44:15.882Z,26.35
2023-03-21T17:46:45.412Z,28.33
2023-03-21T17:49:15.992Z,28.75
2023-03-21T17:51:46.858Z,27.23
2023-03-21T17:54:15.122Z,27.63
2023-03-21T17:56:43.180Z,27.00
2023-03-21T17:59:14.659Z,28.58
2023-03-21T18:01:43.398Z,27.52
2023-03-21T18:04:11.598Z,27.27
2023-03-21T18:06:40.548Z,28.05
2023-03-21T18:09:12.051Z,29.77
2023-03-21T18:11:41.395Z,27.63
2023-03-21T18:14:17.630Z,29.15
2023-03-21T18:16:47.180Z,29.40
2023-03-21T18:19:15.363Z,27.48
2023-03-21T18:21:45.506Z,28.85
2023-03-21T18:24:15.423Z,27.70
2023-03-21T18:26:43.900Z,29.00
2023-03-21T18:30:17.479Z,27.38
2023-03-21T18:32:08.387Z,29.20
2023-03-21T18:34:39.456Z,27.98
2023-03-21T18:37:08.624Z,30.75
2023-03-21T18:39:38.113Z,31.02
2023-03-21T18:42:07.036Z,29.20
2023-03-21T18:44:39.235Z,29.45
2023-03-21T18:47:08.532Z,28.67
2023-03-21T18:52:27.108Z,30.30
2023-03-21T18:54:55.524Z,30.48
2023-03-21T18:57:39.925Z,29.30
2023-03-21T19:00:13.439Z,29.90
2023-03-21T19:02:47.687Z,32.28
2023-03-21T19:05:19.597Z,28.88
2023-03-21T19:07:49.356Z,31.83
2023-03-21T19:10:20.810Z,30.83
2023-03-21T19:12:54.610Z,30.00
2023-03-21T19:15:24.352Z,28.83
2023-03-21T19:20:45.115Z,31.17
2023-03-21T19:23:13.585Z,29.73
2023-03-21T19:25:44.775Z,31.02
2023-03-21T19:28:12.961Z,30.67
2023-03-21T19:30:49.123Z,29.83
2023-03-21T19:33:20.055Z,29.65
2023-03-21T19:36:00.008Z,30.50
2023-03-21T19:38:37.481Z,31.27
2023-03-21T19:41:06.026Z,31.15
2023-03-21T19:43:36.926Z,30.52
2023-03-21T19:46:05.196Z,30.35
2023-03-21T19:48:33.398Z,29.67
2023-03-21T19:51:26.713Z,32.17
2023-03-21T19:53:51.217Z,30.08
2023-03-21T19:56:23.052Z,29.65
2023-03-21T19:58:55.020Z,30.00
2023-03-21T20:01:24.933Z,31.02
2023-03-21T20:03:53.477Z,29.02
2023-03-21T20:06:24.869Z,30.02
2023-03-21T20:09:34.094Z,30.95
2023-03-21T20:11:42.443Z,33.28
2023-03-21T20:14:10.670Z,31.00
2023-03-21T20:16:40.252Z,32.05
2023-03-21T20:19:14.733Z,32.22
2023-03-21T20:21:49.747Z,31.02
2023-03-21T20:24:21.919Z,29.58
2023-03-21T20:26:54.864Z,30.05
2023-03-21T20:32:12.072Z,30.38
2023-03-21T20:34:40.664Z,31.70
2023-03-21T20:37:09.723Z,33.15
2023-03-21T20:39:37.952Z,32.45
2023-03-21T20:42:06.242Z,33.03
2023-03-21T20:44:52.373Z,33.58
2023-03-21T20:47:22.773Z,32.50
2023-03-21T20:49:50.891Z,33.15
2023-03-21T20:55:09.037Z,33.42
2023-03-21T20:57:38.697Z,34.63
2023-03-21T21:00:13.601Z,35.60
2023-03-21T21:02:46.460Z,33.20
2023-03-21T21:05:34.365Z,34.40
2023-03-21T21:08:03.804Z,33.35
2023-03-21T21:10:33.491Z,33.63
2023-03-21T21:13:02.473Z,33.45
2023-03-21T21:15:30.779Z,34.15
2023-03-21T21:18:07.801Z,33.67
2023-03-21T21:20:38.800Z,31.63
2023-03-21T21:23:09.719Z,32.60
2023-03-21T21:25:38.963Z,33.22
2023-03-21T21:28:09.724Z,32.85
2023-03-21T21:30:41.419Z,32.17
2023-03-21T21:33:09.911Z,31.27
2023-03-21T21:35:38.566Z,33.50
2023-03-21T21:38:07.020Z,33.00
2023-03-21T21:40:35.604Z,31.60
2023-03-21T21:43:03.963Z,31.58
2023-03-21T21:45:32.442Z,32.13
2023-03-21T21:48:00.877Z,31.00
2023-03-21T21:50:28.986Z,35.63
2023-03-21T21:52:57.224Z,33.20
2023-03-21T21:55:25.349Z,32.33
2023-03-21T21:57:57.983Z,31.70
2023-03-21T22:00:28.782Z,32.67
2023-03-21T22:02:58.239Z,32.63
2023-03-21T22:05:27.411Z,33.78
2023-03-21T22:07:56.944Z,33.60
2023-03-21T22:10:27.461Z,32.30
2023-03-21T22:12:55.674Z,33.38
2023-03-21T22:15:24.092Z,33.67
2023-03-21T22:17:52.731Z,33.83
2023-03-21T22:20:22.078Z,33.88
2023-03-21T22:22:53.661Z,34.42
2023-03-21T22:25:21.846Z,31.25
2023-03-21T22:27:49.946Z,33.65
2023-03-21T22:30:18.641Z,35.00
2023-03-21T22:32:56.487Z,33.35
2023-03-21T22:35:33.671Z,32.28
2023-03-21T22:38:01.836Z,32.00
2023-03-21T22:40:30.052Z,32.80
2023-03-21T22:42:58.182Z,32.58
2023-03-21T22:45:26.409Z,33.97
2023-03-21T22:47:54.557Z,32.83
2023-03-21T22:50:22.756Z,35.28
2023-03-21T22:52:50.884Z,34.25
2023-03-21T22:55:21.662Z,33.75
2023-03-21T22:57:49.782Z,33.80
2023-03-21T23:00:18.490Z,34.78
2023-03-21T23:02:46.655Z,32.20
2023-03-21T23:05:14.991Z,32.53
2023-03-21T23:07:43.405Z,35.65
2023-03-21T23:10:14.669Z,33.50
2023-03-21T23:12:42.802Z,34.13
2023-03-21T23:15:11.626Z,34.95
2023-03-21T23:17:39.878Z,34.75
2023-03-21T23:20:08.725Z,33.75
2023-03-21T23:22:37.590Z,33.22
2023-03-21T23:25:08.703Z,36.10
2023-03-21T23:27:36.975Z,34.50
2023-03-21T23:30:06.785Z,34.90
2023-03-21T23:32:35.044Z,34.58
2023-03-21T23:35:03.316Z,34.50
2023-03-21T23:37:31.562Z,33.35
2023-03-21T23:39:59.880Z,35.10
2023-03-21T23:42:29.382Z,35.13
2023-03-21T23:44:57.664Z,35.28
2023-03-21T23:47:25.890Z,36.20
2023-03-21T23:49:54.633Z,35.55
2023-03-21T23:52:23.018Z,34.63
2023-03-21T23:54:51.235Z,35.75
2023-03-21T23:57:19.471Z,36.42
2023-03-21T23:59:47.825Z,36.13
